Mercer, Pennsylvania
Current Conditions -  °F | °C
As of 12:55 PM on Saturday 25 Oct 2014 (Local Time) from KFKL Reporting Station
Broken Clouds Broken Clouds  
Wind Chill: 61°   Ceiling: 5000
Heat Index: 61°   Visibility: 10mi
Dew Point: 48°   Wind: 15mph
Humidity: 63%   Direction: 210°SSW
Pressure: 29.82"   Gusts: 22mph
Location:  41.23°N, 80.24°W
Report Text: KFKL 251655Z 21013G19KT 10SM FEW044 BKN050 16/09 A2982 RMK AO1
Loading
Personal Weather Stations






























Interactive Weather Map
Tropical Storm Tracking
New forecast layout! Learn more

10-Day Weather Forecast

Advertisements
Track Severe Weather on mobile